SYD weather

Sydney Kingsford Smith International Airport
Sydney, New South Wales, Australia

Public forecast

Using degrees Celsius for public forecast. Weather courtesy of forecast.io.

Current aviation weather report (METAR) for Sydney Kingsford Smith International Airport

Retrieved 2019/10/18 19:30 UTC (13 minutes ago):

YSSY 181930Z 31005KT CAVOK 14/07 Q1014 NOSIG

Aviation forecast (TAF) for Sydney Kingsford Smith International Airport

Retrieved 2019/10/18 18:00 UTC (2 hours ago):

TAF YSSY 181631Z 1818/1924 33007KT CAVOK FM190100 29015G25KT CAVOK FM190400 26020G30KT CAVOK FM190900 25015G25KT CAVOK FM191200 22012KT CAVOK